createdAt,value
2017-08-16T00:02:12.180Z,99426.16
2017-08-16T00:04:39.686Z,99416.75
2017-08-16T00:07:07.723Z,99423.38
2017-08-16T00:09:35.196Z,99407.56
2017-08-16T00:12:02.662Z,99426.12
2017-08-16T00:14:30.136Z,99427.19
2017-08-16T00:16:57.684Z,99424.17
2017-08-16T00:19:25.181Z,99423.30
2017-08-16T00:21:52.644Z,99416.95
2017-08-16T00:24:20.233Z,99406.70
2017-08-16T00:26:47.698Z,99405.90
2017-08-16T00:29:15.171Z,99401.41
2017-08-16T00:31:42.649Z,99404.30
2017-08-16T00:34:10.119Z,99405.14
2017-08-16T00:36:37.624Z,99400.06
2017-08-16T00:39:05.095Z,99404.30
2017-08-16T00:41:32.595Z,99395.39
2017-08-16T00:44:00.060Z,99400.58
2017-08-16T00:46:27.538Z,99404.22
2017-08-16T00:48:54.989Z,99400.67
2017-08-16T00:51:22.499Z,99395.95
2017-08-16T00:53:49.986Z,99390.05
2017-08-16T00:56:17.446Z,99388.77
2017-08-16T00:58:44.982Z,99380.41
2017-08-16T01:01:12.434Z,99370.76
2017-08-16T01:03:39.937Z,99361.14
2017-08-16T01:06:07.414Z,99365.02
2017-08-16T01:08:34.878Z,99377.23
2017-08-16T01:11:02.357Z,99376.77
2017-08-16T01:13:29.818Z,99381.27
2017-08-16T01:15:57.276Z,99392.80
2017-08-16T01:18:24.762Z,99398.70
2017-08-16T01:20:52.252Z,99402.00
2017-08-16T01:23:19.702Z,99405.70
2017-08-16T01:25:47.181Z,99404.70
2017-08-16T01:28:14.656Z,99401.06
2017-08-16T01:30:42.165Z,99426.62
2017-08-16T01:33:09.634Z,99412.11
2017-08-16T01:35:37.127Z,99407.38
2017-08-16T01:38:04.590Z,99401.80
2017-08-16T01:40:32.064Z,99361.66
2017-08-16T01:42:59.561Z,99378.18
2017-08-16T01:45:27.009Z,99396.10
2017-08-16T01:47:54.504Z,99397.52
2017-08-16T01:50:21.979Z,99394.80
2017-08-16T01:52:49.462Z,99409.86
2017-08-16T01:55:16.954Z,99410.70
2017-08-16T01:57:44.396Z,99414.27
2017-08-16T02:00:11.804Z,99423.56
2017-08-16T02:02:39.227Z,99415.41
2017-08-16T02:05:06.658Z,99412.83
2017-08-16T02:07:34.064Z,99418.73
2017-08-16T02:10:01.492Z,99424.70
2017-08-16T02:12:28.893Z,99431.50
2017-08-16T02:14:56.328Z,99432.30
2017-08-16T02:17:23.779Z,99440.36
2017-08-16T02:19:51.222Z,99436.12
2017-08-16T02:22:18.617Z,99429.39
2017-08-16T02:24:46.096Z,99437.73
2017-08-16T02:27:13.604Z,99438.58
2017-08-16T02:29:41.063Z,99435.28
2017-08-16T02:32:08.569Z,99441.39
2017-08-16T02:34:36.014Z,99426.72
2017-08-16T02:37:03.481Z,99409.06
2017-08-16T02:39:30.975Z,99428.66
2017-08-16T02:41:58.447Z,99438.13
2017-08-16T02:44:25.902Z,99438.95
2017-08-16T02:46:53.403Z,99414.10
2017-08-16T02:49:20.870Z,99426.94
2017-08-16T02:51:48.373Z,99433.08
2017-08-16T02:54:15.846Z,99435.33
2017-08-16T02:56:43.339Z,99439.89
2017-08-16T02:59:10.816Z,99442.26
2017-08-16T03:01:38.276Z,99433.25
2017-08-16T03:04:05.774Z,99434.02
2017-08-16T03:06:33.260Z,99425.76
2017-08-16T03:09:00.762Z,99424.02
2017-08-16T03:11:28.234Z,99418.06
2017-08-16T03:13:55.746Z,99420.56
2017-08-16T03:19:16.197Z,99419.48
2017-08-16T03:21:43.666Z,99426.41
2017-08-16T03:24:11.119Z,99434.78
2017-08-16T03:26:38.626Z,99433.16
2017-08-16T03:29:06.598Z,99424.92
2017-08-16T03:31:34.074Z,99420.86
2017-08-16T03:34:02.910Z,99422.27
2017-08-16T03:36:30.379Z,99433.62
2017-08-16T03:38:57.885Z,99440.79
2017-08-16T03:41:25.386Z,99434.89
2017-08-16T03:43:52.849Z,99438.70
2017-08-16T03:46:20.449Z,99444.17
2017-08-16T03:48:47.907Z,99443.19
2017-08-16T03:51:15.375Z,99457.12
2017-08-16T03:53:42.855Z,99449.42
2017-08-16T03:56:10.329Z,99440.73
2017-08-16T03:58:37.789Z,99455.16
2017-08-16T04:01:05.350Z,99455.70
2017-08-16T04:03:32.801Z,99448.94
2017-08-16T04:06:00.263Z,99449.94
2017-08-16T04:08:27.754Z,99447.23
2017-08-16T04:10:55.231Z,99451.48
2017-08-16T04:13:22.709Z,99448.38
2017-08-16T04:15:50.195Z,99449.52
2017-08-16T04:18:17.684Z,99445.98
2017-08-16T04:20:45.159Z,99459.78
2017-08-16T04:23:12.633Z,99462.60
2017-08-16T04:25:40.241Z,99466.83
2017-08-16T04:28:07.711Z,99454.25
2017-08-16T04:30:35.190Z,99469.08
2017-08-16T04:33:02.679Z,99469.36
2017-08-16T04:35:30.170Z,99465.52
2017-08-16T04:37:57.635Z,99465.89
2017-08-16T04:40:25.124Z,99429.00
2017-08-16T04:42:52.603Z,99469.45
2017-08-16T04:45:20.083Z,99469.81
2017-08-16T04:47:47.579Z,99464.80
2017-08-16T04:50:15.049Z,99468.36
2017-08-16T04:52:42.615Z,99474.44
2017-08-16T04:55:10.057Z,99473.38
2017-08-16T04:57:37.534Z,99474.58
2017-08-16T05:00:04.998Z,99475.75
2017-08-16T05:02:32.518Z,99473.06
2017-08-16T05:04:59.973Z,99475.69
2017-08-16T05:07:27.464Z,99475.46
2017-08-16T05:09:54.962Z,99479.77
2017-08-16T05:12:22.471Z,99482.30
2017-08-16T05:14:49.971Z,99482.73
2017-08-16T05:17:17.434Z,99476.38
2017-08-16T05:19:44.927Z,99478.53
2017-08-16T05:22:12.435Z,99482.02
2017-08-16T05:24:39.963Z,99480.45
2017-08-16T05:27:07.433Z,99480.62
2017-08-16T05:29:34.943Z,99477.54
2017-08-16T05:32:02.407Z,99484.87
2017-08-16T05:34:29.912Z,99485.32
2017-08-16T05:36:57.382Z,99488.89
2017-08-16T05:39:24.906Z,99486.55
2017-08-16T05:41:52.371Z,99483.09
2017-08-16T05:44:19.879Z,99488.67
2017-08-16T05:46:47.345Z,99494.78
2017-08-16T05:49:14.830Z,99491.08
2017-08-16T05:51:42.289Z,99497.14
2017-08-16T05:54:10.715Z,99497.46
2017-08-16T05:56:38.193Z,99498.68
2017-08-16T05:59:05.699Z,99502.30
2017-08-16T06:01:33.219Z,99496.33
2017-08-16T06:04:00.702Z,99495.61
2017-08-16T06:06:29.877Z,99476.77
2017-08-16T06:08:59.140Z,99495.45
2017-08-16T06:11:26.650Z,99493.06
2017-08-16T06:13:54.134Z,99496.00
2017-08-16T06:16:21.637Z,99501.77
2017-08-16T06:18:49.109Z,99505.55
2017-08-16T06:21:16.575Z,99502.29
2017-08-16T06:23:44.086Z,99509.98
2017-08-16T06:26:11.545Z,99514.03
2017-08-16T06:28:39.068Z,99518.31
2017-08-16T06:31:06.574Z,99519.77
2017-08-16T06:33:34.056Z,99518.84
2017-08-16T06:36:01.548Z,99519.38
2017-08-16T06:38:29.053Z,99515.94
2017-08-16T06:40:56.590Z,99528.98
2017-08-16T06:43:24.234Z,99524.02
2017-08-16T06:45:51.726Z,99523.61
2017-08-16T06:48:19.198Z,99523.83
2017-08-16T06:50:47.270Z,99526.75
2017-08-16T06:53:14.762Z,99533.90
2017-08-16T06:55:42.279Z,99529.59
2017-08-16T06:58:09.837Z,99540.58
2017-08-16T07:00:37.445Z,99530.84
2017-08-16T07:03:04.983Z,99535.28
2017-08-16T07:05:32.461Z,99538.73
2017-08-16T07:07:59.972Z,99541.54
2017-08-16T07:10:27.428Z,99543.52
2017-08-16T07:12:54.948Z,99544.30
2017-08-16T07:15:22.433Z,99542.59
2017-08-16T07:17:49.940Z,99536.28
2017-08-16T07:20:17.438Z,99542.39
2017-08-16T07:22:44.942Z,99543.67
2017-08-16T07:25:12.447Z,99535.10
2017-08-16T07:27:39.980Z,99542.84
2017-08-16T07:30:07.588Z,99531.15
2017-08-16T07:32:35.052Z,99528.13
2017-08-16T07:35:02.567Z,99534.77
2017-08-16T07:37:30.038Z,99534.23
2017-08-16T07:39:58.060Z,99527.27
2017-08-16T07:42:27.334Z,99528.09
2017-08-16T07:44:54.868Z,99526.23
2017-08-16T07:47:22.422Z,99535.02
2017-08-16T07:49:50.119Z,99532.41
2017-08-16T07:52:17.715Z,99534.52
2017-08-16T07:54:45.252Z,99540.89
2017-08-16T07:57:12.778Z,99538.44
2017-08-16T07:59:40.317Z,99532.83
2017-08-16T08:02:07.804Z,99534.50
2017-08-16T08:04:35.280Z,99532.59
2017-08-16T08:07:03.027Z,99532.39
2017-08-16T08:09:31.273Z,99533.11
2017-08-16T08:11:58.778Z,99532.39
2017-08-16T08:14:26.257Z,99532.55
2017-08-16T08:16:53.780Z,99534.61
2017-08-16T08:19:21.290Z,99537.52
2017-08-16T08:21:48.749Z,99521.78
2017-08-16T08:24:16.249Z,99543.28
2017-08-16T08:26:43.747Z,99532.44
2017-08-16T08:29:11.277Z,99542.93
2017-08-16T08:31:38.816Z,99540.27
2017-08-16T08:34:07.073Z,99538.80
2017-08-16T08:36:34.554Z,99539.77
2017-08-16T08:39:02.094Z,99535.36
2017-08-16T08:41:29.657Z,99534.47
2017-08-16T08:43:57.163Z,99538.09
2017-08-16T08:46:24.651Z,99537.72
2017-08-16T08:48:52.122Z,99539.06
2017-08-16T08:51:20.135Z,99537.25
2017-08-16T08:53:47.679Z,99528.23
2017-08-16T08:56:17.592Z,99525.06
2017-08-16T08:58:48.250Z,99528.23
2017-08-16T09:01:18.626Z,99524.56
2017-08-16T09:03:46.086Z,99530.78
2017-08-16T09:06:15.645Z,99479.38
2017-08-16T09:08:46.610Z,99533.48
2017-08-16T09:11:14.090Z,99529.29
2017-08-16T09:13:41.575Z,99529.62
2017-08-16T09:16:09.051Z,99518.94
2017-08-16T09:18:36.546Z,99536.39
2017-08-16T09:21:04.004Z,99530.89
2017-08-16T09:23:31.512Z,99528.20
2017-08-16T09:25:59.051Z,99524.55
2017-08-16T09:28:26.565Z,99523.64
2017-08-16T09:30:54.077Z,99524.11
2017-08-16T09:33:21.904Z,99522.09
2017-08-16T09:35:49.425Z,99518.67
2017-08-16T09:38:16.925Z,99523.95
2017-08-16T09:40:44.423Z,99525.34
2017-08-16T09:43:12.709Z,99519.42
2017-08-16T09:45:40.227Z,99522.71
2017-08-16T09:48:07.696Z,99518.10
2017-08-16T09:50:35.201Z,99517.84
2017-08-16T09:53:02.688Z,99515.57
2017-08-16T09:55:30.186Z,99509.30
2017-08-16T09:57:57.665Z,99512.96
2017-08-16T10:00:25.130Z,99501.83
2017-08-16T10:02:53.267Z,99512.51
2017-08-16T10:05:20.755Z,99501.48
2017-08-16T10:07:48.293Z,99508.89
2017-08-16T10:10:15.754Z,99499.00
2017-08-16T10:12:43.231Z,99499.00
2017-08-16T10:15:10.680Z,99492.67
2017-08-16T10:17:38.182Z,99495.94
2017-08-16T10:20:05.692Z,99486.64
2017-08-16T10:22:33.204Z,99478.06
2017-08-16T10:25:00.688Z,99474.80
2017-08-16T10:27:28.158Z,99477.13
2017-08-16T10:29:55.640Z,99474.38
2017-08-16T10:32:23.122Z,99460.68
2017-08-16T10:34:50.635Z,99472.84
2017-08-16T10:37:18.080Z,99469.39
2017-08-16T10:39:45.564Z,99464.50
2017-08-16T10:42:13.051Z,99470.24
2017-08-16T10:44:40.603Z,99465.92
2017-08-16T10:47:08.565Z,99466.33
2017-08-16T10:49:36.018Z,99466.59
2017-08-16T10:52:03.524Z,99461.89
2017-08-16T10:54:30.991Z,99462.52
2017-08-16T10:56:58.470Z,99460.30
2017-08-16T10:59:25.942Z,99467.87
2017-08-16T11:01:53.453Z,99456.77
2017-08-16T11:04:20.931Z,99447.09
2017-08-16T11:06:48.381Z,99447.70
2017-08-16T11:09:15.860Z,99443.19
2017-08-16T11:11:43.345Z,99438.99
2017-08-16T11:14:11.724Z,99442.09
2017-08-16T11:16:40.143Z,99432.71
2017-08-16T11:19:07.702Z,99433.99
2017-08-16T11:21:35.887Z,99425.59
2017-08-16T11:24:03.514Z,99429.84
2017-08-16T11:26:31.020Z,99429.68
2017-08-16T11:28:58.521Z,99428.64
2017-08-16T11:31:26.003Z,99423.02
2017-08-16T11:33:53.649Z,99425.50
2017-08-16T11:36:21.160Z,99428.00
2017-08-16T11:38:49.170Z,99424.41
2017-08-16T11:41:16.692Z,99421.19
2017-08-16T11:43:44.248Z,99420.42
2017-08-16T11:46:11.706Z,99417.31
2017-08-16T11:48:39.276Z,99420.30
2017-08-16T11:51:06.816Z,99414.44
2017-08-16T11:53:34.297Z,99409.67
2017-08-16T11:56:01.837Z,99403.97
2017-08-16T11:58:29.331Z,99416.43
2017-08-16T12:00:56.785Z,99332.73
2017-08-16T12:03:24.277Z,99415.90
2017-08-16T12:05:51.834Z,99408.29
2017-08-16T12:08:19.336Z,99418.90
2017-08-16T12:10:46.849Z,99414.48
2017-08-16T12:13:14.358Z,99416.20
2017-08-16T12:15:41.893Z,99410.27
2017-08-16T12:18:09.351Z,99416.43
2017-08-16T12:20:36.852Z,99413.66
2017-08-16T12:23:04.403Z,99420.30
2017-08-16T12:25:31.911Z,99413.96
2017-08-16T12:27:59.399Z,99413.69
2017-08-16T12:30:26.885Z,99408.10
2017-08-16T12:32:54.344Z,99415.17
2017-08-16T12:35:21.843Z,99412.52
2017-08-16T12:37:49.323Z,99415.62
2017-08-16T12:40:16.845Z,99416.80
2017-08-16T12:42:45.242Z,99408.40
2017-08-16T12:45:13.317Z,99414.74
2017-08-16T12:47:41.367Z,99417.18
2017-08-16T12:50:08.842Z,99421.04
2017-08-16T12:52:37.049Z,99417.70
2017-08-16T12:55:04.532Z,99413.38
2017-08-16T12:57:32.210Z,99407.23
2017-08-16T13:00:00.354Z,99409.73
2017-08-16T13:02:27.876Z,99408.97
2017-08-16T13:04:55.340Z,99406.83
2017-08-16T13:07:22.948Z,99408.75
2017-08-16T13:09:50.449Z,99405.75
2017-08-16T13:12:17.948Z,99403.00
2017-08-16T13:14:45.446Z,99405.96
2017-08-16T13:17:12.890Z,99406.84
2017-08-16T13:19:40.403Z,99403.67
2017-08-16T13:22:07.875Z,99407.52
2017-08-16T13:24:35.417Z,99403.05
2017-08-16T13:27:03.038Z,99388.41
2017-08-16T13:29:30.529Z,99398.53
2017-08-16T13:31:58.009Z,99394.84
2017-08-16T13:34:25.524Z,99397.31
2017-08-16T13:36:53.014Z,99395.62
2017-08-16T13:39:20.517Z,99391.63
2017-08-16T13:41:48.055Z,99394.14
2017-08-16T13:44:15.520Z,99373.16
2017-08-16T13:46:43.004Z,99377.63
2017-08-16T13:49:10.501Z,99374.14
2017-08-16T13:51:38.009Z,99371.09
2017-08-16T13:54:05.492Z,99369.42
2017-08-16T13:56:33.036Z,99370.49
2017-08-16T13:59:00.542Z,99371.13
2017-08-16T14:01:28.014Z,99352.52
2017-08-16T14:03:55.507Z,99371.43
2017-08-16T14:06:22.977Z,99365.45
2017-08-16T14:08:50.516Z,99364.53
2017-08-16T14:11:18.310Z,99362.98
2017-08-16T14:13:45.786Z,99361.02
2017-08-16T14:16:13.282Z,99358.71
2017-08-16T14:18:41.866Z,99351.42
2017-08-16T14:21:09.370Z,99353.55
2017-08-16T14:23:36.828Z,99353.50
2017-08-16T14:26:04.296Z,99351.27
2017-08-16T14:28:31.764Z,99348.04
2017-08-16T14:30:59.285Z,99345.48
2017-08-16T14:33:26.749Z,99348.00
2017-08-16T14:35:54.242Z,99348.95
2017-08-16T14:38:21.725Z,99350.81
2017-08-16T14:40:49.199Z,99351.11
2017-08-16T14:43:16.673Z,99355.44
2017-08-16T14:45:44.137Z,99358.97
2017-08-16T14:48:11.729Z,99350.47
2017-08-16T14:50:39.182Z,99351.94
2017-08-16T14:53:06.673Z,99352.52
2017-08-16T14:55:34.168Z,99350.05
2017-08-16T14:58:01.709Z,99348.80
2017-08-16T15:00:29.280Z,99348.98
2017-08-16T15:02:56.789Z,99348.86
2017-08-16T15:05:24.344Z,99356.85
2017-08-16T15:07:51.865Z,99350.75
2017-08-16T15:10:19.415Z,99349.05
2017-08-16T15:12:46.934Z,99346.58
2017-08-16T15:15:14.514Z,99346.95
2017-08-16T15:17:42.029Z,99347.25
2017-08-16T15:20:09.518Z,99341.36
2017-08-16T15:22:37.053Z,99339.22
2017-08-16T15:25:04.506Z,99343.54
2017-08-16T15:27:32.013Z,99336.92
2017-08-16T15:29:59.480Z,99338.68
2017-08-16T15:32:26.999Z,99335.16
2017-08-16T15:34:54.528Z,99329.52
2017-08-16T15:37:22.022Z,99339.01
2017-08-16T15:39:49.479Z,99339.22
2017-08-16T15:42:17.223Z,99344.27
2017-08-16T15:44:44.693Z,99342.34
2017-08-16T15:47:12.177Z,99340.66
2017-08-16T15:49:40.189Z,99339.16
2017-08-16T15:52:07.712Z,99341.23
2017-08-16T15:54:35.210Z,99333.17
2017-08-16T15:57:03.515Z,99329.64
2017-08-16T15:59:31.006Z,99320.27
2017-08-16T16:01:58.470Z,99322.19
2017-08-16T16:04:25.981Z,99323.25
2017-08-16T16:06:54.315Z,99325.17
2017-08-16T16:09:21.854Z,99323.13
2017-08-16T16:11:49.330Z,99323.89
2017-08-16T16:14:16.837Z,99327.97
2017-08-16T16:16:44.343Z,99320.56
2017-08-16T16:19:11.828Z,99318.56
2017-08-16T16:21:39.317Z,99320.83
2017-08-16T16:24:06.848Z,99316.17
2017-08-16T16:26:34.404Z,99315.64
2017-08-16T16:29:02.466Z,99310.00
2017-08-16T16:31:30.678Z,99313.03
2017-08-16T16:33:58.135Z,99321.13
2017-08-16T16:36:25.818Z,99321.92
2017-08-16T16:38:53.306Z,99312.94
2017-08-16T16:41:20.764Z,99320.55
2017-08-16T16:43:48.299Z,99316.47
2017-08-16T16:46:15.789Z,99293.58
2017-08-16T16:48:44.261Z,99315.37
2017-08-16T16:51:11.864Z,99313.12
2017-08-16T16:53:41.119Z,99309.70
2017-08-16T16:56:08.612Z,99315.13
2017-08-16T16:58:36.123Z,99313.45
2017-08-16T17:01:03.611Z,99302.91
2017-08-16T17:03:31.508Z,99311.48
2017-08-16T17:05:59.034Z,99299.47
2017-08-16T17:08:26.505Z,99308.59
2017-08-16T17:10:54.023Z,99313.80
2017-08-16T17:13:21.593Z,99297.37
2017-08-16T17:15:49.078Z,99315.34
2017-08-16T17:18:16.544Z,99317.06
2017-08-16T17:20:44.034Z,99310.49
2017-08-16T17:23:15.233Z,99305.45
2017-08-16T17:25:42.762Z,99309.00
2017-08-16T17:28:10.249Z,99307.36
2017-08-16T17:30:37.750Z,99304.97
2017-08-16T17:33:05.542Z,99298.86
2017-08-16T17:35:33.332Z,99295.68
2017-08-16T17:38:00.860Z,99302.77
2017-08-16T17:40:28.375Z,99299.89
2017-08-16T17:42:55.894Z,99296.60
2017-08-16T17:45:23.407Z,99303.58
2017-08-16T17:47:50.893Z,99297.80
2017-08-16T17:50:18.607Z,99297.80
2017-08-16T17:52:46.092Z,99296.86
2017-08-16T17:55:13.581Z,99301.78
2017-08-16T17:57:41.815Z,99298.63
2017-08-16T18:00:09.328Z,99301.28
2017-08-16T18:02:36.913Z,99298.98
2017-08-16T18:05:04.555Z,99303.88
2017-08-16T18:07:32.065Z,99297.41
2017-08-16T18:09:59.553Z,99306.05
2017-08-16T18:12:27.120Z,99304.72
2017-08-16T18:14:54.710Z,99313.64
2017-08-16T18:17:22.218Z,99304.62
2017-08-16T18:19:50.396Z,99307.34
2017-08-16T18:22:17.960Z,99309.56
2017-08-16T18:24:45.485Z,99319.12
2017-08-16T18:27:12.996Z,99310.90
2017-08-16T18:29:40.582Z,99312.03
2017-08-16T18:32:08.153Z,99312.39
2017-08-16T18:34:35.618Z,99323.30
2017-08-16T18:37:04.061Z,99315.87
2017-08-16T18:39:31.604Z,99321.63
2017-08-16T18:41:59.210Z,99318.29
2017-08-16T18:44:26.696Z,99321.43
2017-08-16T18:46:54.162Z,99323.48
2017-08-16T18:49:21.725Z,99322.92
2017-08-16T18:51:49.205Z,99325.34
2017-08-16T18:54:16.708Z,99334.16
2017-08-16T18:56:44.170Z,99321.96
2017-08-16T18:59:12.059Z,99329.75
2017-08-16T19:01:39.550Z,99334.66
2017-08-16T19:04:07.022Z,99334.36
2017-08-16T19:06:34.527Z,99335.45
2017-08-16T19:09:02.015Z,99342.64
2017-08-16T19:11:29.884Z,99342.36
2017-08-16T19:13:57.409Z,99342.02
2017-08-16T19:16:24.929Z,99342.95
2017-08-16T19:18:52.692Z,99340.05
2017-08-16T19:21:20.166Z,99342.12
2017-08-16T19:23:47.656Z,99344.59
2017-08-16T19:26:15.473Z,99346.03
2017-08-16T19:28:43.006Z,99344.56
2017-08-16T19:31:10.484Z,99347.59
2017-08-16T19:33:38.023Z,99351.66
2017-08-16T19:36:05.494Z,99345.66
2017-08-16T19:38:33.015Z,99341.36
2017-08-16T19:41:00.468Z,99336.43
2017-08-16T19:43:28.055Z,99342.54
2017-08-16T19:45:55.880Z,99333.93
2017-08-16T19:48:23.402Z,99341.98
2017-08-16T19:50:50.912Z,99338.85
2017-08-16T19:53:18.441Z,99339.55
2017-08-16T19:55:45.969Z,99349.78
2017-08-16T19:58:13.427Z,99342.67
2017-08-16T20:00:40.970Z,99349.93
2017-08-16T20:03:08.458Z,99337.75
2017-08-16T20:05:35.959Z,99353.55
2017-08-16T20:08:03.447Z,99351.23
2017-08-16T20:10:30.953Z,99350.45
2017-08-16T20:12:58.426Z,99353.70
2017-08-16T20:15:25.909Z,99356.79
2017-08-16T20:17:53.381Z,99354.44
2017-08-16T20:20:21.328Z,99363.80
2017-08-16T20:22:48.882Z,99354.66
2017-08-16T20:25:16.421Z,99357.59
2017-08-16T20:27:43.883Z,99358.80
2017-08-16T20:30:11.337Z,99357.34
2017-08-16T20:32:38.836Z,99360.60
2017-08-16T20:35:08.065Z,99365.55
2017-08-16T20:37:35.583Z,99363.00
2017-08-16T20:40:03.053Z,99361.73
2017-08-16T20:42:30.541Z,99364.42
2017-08-16T20:44:58.011Z,99369.07
2017-08-16T20:47:25.502Z,99365.15
2017-08-16T20:49:53.023Z,99365.50
2017-08-16T20:52:20.538Z,99361.10
2017-08-16T20:54:48.005Z,99363.92
2017-08-16T20:57:15.639Z,99360.58
2017-08-16T20:59:43.118Z,99359.78
2017-08-16T21:02:10.582Z,99359.67
2017-08-16T21:04:38.082Z,99365.67
2017-08-16T21:07:05.529Z,99359.47
2017-08-16T21:09:33.031Z,99353.52
2017-08-16T21:12:00.537Z,99359.36
2017-08-16T21:14:28.042Z,99356.11
2017-08-16T21:16:55.493Z,99360.54
2017-08-16T21:19:22.989Z,99357.55
2017-08-16T21:21:50.458Z,99354.88
2017-08-16T21:24:17.938Z,99363.08
2017-08-16T21:26:45.438Z,99354.17
2017-08-16T21:29:12.939Z,99354.88
2017-08-16T21:31:40.404Z,99346.75
2017-08-16T21:34:08.231Z,99349.39
2017-08-16T21:36:35.699Z,99342.30
2017-08-16T21:39:03.155Z,99338.39
2017-08-16T21:41:31.046Z,99332.86
2017-08-16T21:43:58.514Z,99333.64
2017-08-16T21:46:25.977Z,99328.77
2017-08-16T21:48:53.497Z,99317.69
2017-08-16T21:51:21.111Z,99315.77
2017-08-16T21:53:48.587Z,99314.12
2017-08-16T21:56:16.074Z,99315.55
2017-08-16T21:58:43.566Z,99317.24
2017-08-16T22:01:11.066Z,99315.11
2017-08-16T22:03:38.594Z,99309.84
2017-08-16T22:06:07.832Z,99307.64
2017-08-16T22:08:35.505Z,99306.78
2017-08-16T22:11:03.019Z,99306.23
2017-08-16T22:13:30.639Z,99305.55
2017-08-16T22:15:58.185Z,99301.67
2017-08-16T22:18:25.860Z,99309.53
2017-08-16T22:20:53.353Z,99306.63
2017-08-16T22:23:20.827Z,99302.30
2017-08-16T22:25:48.315Z,99303.15
2017-08-16T22:28:15.786Z,99302.99
2017-08-16T22:30:43.263Z,99307.52
2017-08-16T22:33:10.763Z,99306.02
2017-08-16T22:35:38.222Z,99301.45
2017-08-16T22:38:05.831Z,99295.00
2017-08-16T22:40:33.445Z,99289.78
2017-08-16T22:43:00.940Z,99293.77
2017-08-16T22:45:28.450Z,99283.09
2017-08-16T22:47:55.967Z,99283.87
2017-08-16T22:50:23.469Z,99282.47
2017-08-16T22:52:50.942Z,99284.13
2017-08-16T22:55:18.444Z,99282.03
2017-08-16T22:57:45.966Z,99282.95
2017-08-16T23:00:13.451Z,99277.72
2017-08-16T23:02:42.725Z,99265.64
2017-08-16T23:05:10.235Z,99261.47
2017-08-16T23:07:37.776Z,99261.73
2017-08-16T23:10:05.300Z,99264.75
2017-08-16T23:12:33.721Z,99257.44
2017-08-16T23:15:01.259Z,99259.64
2017-08-16T23:17:28.744Z,99259.80
2017-08-16T23:19:56.202Z,99257.28
2017-08-16T23:22:23.676Z,99260.83
2017-08-16T23:24:51.173Z,99264.23
2017-08-16T23:27:18.631Z,99265.34
2017-08-16T23:29:46.115Z,99264.36
2017-08-16T23:32:13.586Z,99263.98
2017-08-16T23:34:41.074Z,99268.50
2017-08-16T23:37:08.555Z,99265.86
2017-08-16T23:39:36.045Z,99264.28
2017-08-16T23:42:03.500Z,99271.93
2017-08-16T23:44:31.188Z,99272.04
2017-08-16T23:46:58.989Z,99279.95
2017-08-16T23:49:26.483Z,99277.10
2017-08-16T23:51:53.986Z,99279.05
2017-08-16T23:54:21.470Z,99275.59
2017-08-16T23:56:48.996Z,99285.95
2017-08-16T23:59:16.445Z,99272.05
